Terminal Aerodrome Forecast
Issued by NWS Wilmington, OH

Current Version | Previous Version | Graphics & Text | Print | Product List | Glossary On
Versions: 1 2 3 4 5 6 7 8 9 10 11 12 13 14 15 16 17 18 19 20 21 22 23 24 25
000
FTUS41 KILN 310600 AAA
TAFCMH
TAF AMD
KCMH 310621Z 3106/0106 05006KT P6SM VCSH SCT060 BKN100
      TEMPO 3106/3107 VRB25KT 3SM TSRA OVC030CB
     FM311200 17008KT P6SM OVC035
     FM311600 20011KT P6SM VCSH OVC025
     FM312200 32010KT P6SM OVC015
     FM010200 35007KT P6SM OVC007=

USA.gov is the U.S. government's official web portal to all federal, state and local government web resources and services.